AKJ752 VABB-VOBL
Flight info
| Callsign | AKJ752 |
|---|---|
| Flight time | N/A |
| Altitude | 37000 |
| Route | VEVAK2A EPKOS Q9 RIKBU RIKBU7E |
| Aircraft | B38M/M-SDE1FGHILORVWXY/HB1 |
Departure
| Time | N/A |
|---|---|
| Airport | Chhatrapati Shivaji Maharaj International Airport (VABB) |
Arrival
| Time | 2026-04-29 09:57 |
|---|---|
| Airport | Kempegowda International Airport Bengaluru (VOBL) |
| Time | Latitude | Longitude | Altitude | Speed | Heading |
|---|---|---|---|---|---|
| 2026-04-29 08:42 | 18.43746 | 72.86083 | 22080 ft | 412 kts | 162° |
| 2026-04-29 08:42 | 18.41047 | 72.87018 | 22551 ft | 416 kts | 162° |
| 2026-04-29 08:42 | 18.38280 | 72.87977 | 23025 ft | 419 kts | 162° |
| 2026-04-29 08:43 | 18.35490 | 72.88943 | 23469 ft | 423 kts | 162° |
| 2026-04-29 08:43 | 18.32682 | 72.89914 | 23851 ft | 426 kts | 162° |
| 2026-04-29 08:43 | 18.29860 | 72.90891 | 24237 ft | 429 kts | 162° |
| 2026-04-29 08:43 | 18.27012 | 72.91875 | 24628 ft | 432 kts | 163° |
| 2026-04-29 08:44 | 18.24149 | 72.92865 | 25014 ft | 435 kts | 163° |
| 2026-04-29 08:44 | 18.21255 | 72.93865 | 25406 ft | 438 kts | 163° |
| 2026-04-29 08:44 | 18.18348 | 72.94870 | 25778 ft | 441 kts | 163° |
| 2026-04-29 08:44 | 18.15419 | 72.95882 | 26156 ft | 444 kts | 163° |
| 2026-04-29 08:45 | 18.12485 | 72.96895 | 26686 ft | 441 kts | 163° |
| 2026-04-29 08:45 | 18.09637 | 72.98007 | 27446 ft | 435 kts | 154° |
| 2026-04-29 08:45 | 18.07156 | 72.99795 | 28075 ft | 433 kts | 139° |
| 2026-04-29 08:45 | 18.04937 | 73.01874 | 28507 ft | 434 kts | 140° |
| 2026-04-29 08:46 | 18.02642 | 73.04013 | 28838 ft | 437 kts | 139° |
| 2026-04-29 08:46 | 18.00396 | 73.06132 | 29187 ft | 440 kts | 139° |
| 2026-04-29 08:46 | 17.98118 | 73.08297 | 29516 ft | 443 kts | 139° |
| 2026-04-29 08:46 | 17.95824 | 73.10486 | 29830 ft | 446 kts | 139° |
| 2026-04-29 08:47 | 17.93516 | 73.12688 | 30114 ft | 449 kts | 139° |
| 2026-04-29 08:47 | 17.91197 | 73.14900 | 30409 ft | 451 kts | 139° |
| 2026-04-29 08:47 | 17.88873 | 73.17117 | 30713 ft | 452 kts | 139° |
| 2026-04-29 08:47 | 17.86534 | 73.19346 | 31009 ft | 454 kts | 139° |
| 2026-04-29 08:48 | 17.84224 | 73.21548 | 31299 ft | 455 kts | 139° |
| 2026-04-29 08:48 | 17.81871 | 73.23790 | 31568 ft | 457 kts | 139° |
| 2026-04-29 08:48 | 17.79512 | 73.26036 | 31858 ft | 459 kts | 139° |
| 2026-04-29 08:48 | 17.77138 | 73.28295 | 32137 ft | 461 kts | 139° |
| 2026-04-29 08:49 | 17.74762 | 73.30557 | 32413 ft | 462 kts | 139° |
| 2026-04-29 08:49 | 17.72372 | 73.32830 | 32651 ft | 464 kts | 139° |
| 2026-04-29 08:49 | 17.69976 | 73.35107 | 32930 ft | 465 kts | 139° |
| 2026-04-29 08:49 | 17.67574 | 73.37392 | 33221 ft | 467 kts | 139° |
| 2026-04-29 08:50 | 17.65166 | 73.39679 | 33459 ft | 468 kts | 139° |
| 2026-04-29 08:50 | 17.62746 | 73.41977 | 33704 ft | 470 kts | 139° |
| 2026-04-29 08:50 | 17.61138 | 73.43505 | 33859 ft | 471 kts | 139° |
| 2026-04-29 08:50 | 17.57880 | 73.46597 | 34152 ft | 473 kts | 138° |
| 2026-04-29 08:51 | 17.55459 | 73.48894 | 34351 ft | 474 kts | 138° |
| 2026-04-29 08:51 | 17.53000 | 73.51226 | 34576 ft | 476 kts | 138° |
| 2026-04-29 08:51 | 17.50541 | 73.53556 | 34769 ft | 477 kts | 138° |
| 2026-04-29 08:51 | 17.48072 | 73.55897 | 34964 ft | 478 kts | 138° |
| 2026-04-29 08:52 | 17.46437 | 73.57445 | 35096 ft | 479 kts | 138° |
| 2026-04-29 08:52 | 17.43960 | 73.59791 | 35298 ft | 481 kts | 138° |
| 2026-04-29 08:52 | 17.40635 | 73.62938 | 35556 ft | 482 kts | 137° |
| 2026-04-29 08:52 | 17.38986 | 73.64499 | 35673 ft | 483 kts | 137° |
| 2026-04-29 08:53 | 17.35652 | 73.67652 | 35977 ft | 484 kts | 137° |
| 2026-04-29 08:53 | 17.31482 | 73.71594 | 36240 ft | 487 kts | 137° |
| 2026-04-29 08:53 | 17.28964 | 73.73973 | 36416 ft | 488 kts | 137° |
| 2026-04-29 08:54 | 17.26445 | 73.76353 | 36584 ft | 489 kts | 137° |
| 2026-04-29 08:54 | 17.23914 | 73.78742 | 36761 ft | 490 kts | 137° |
| 2026-04-29 08:54 | 17.21375 | 73.81138 | 36886 ft | 491 kts | 137° |
| 2026-04-29 08:55 | 17.16329 | 73.85897 | 36878 ft | 490 kts | 137° |
| 2026-04-29 08:55 | 17.11265 | 73.90670 | 36880 ft | 490 kts | 137° |
| 2026-04-29 08:56 | 17.06202 | 73.95437 | 36887 ft | 490 kts | 137° |
| 2026-04-29 08:56 | 17.01133 | 74.00207 | 36890 ft | 490 kts | 137° |
| 2026-04-29 08:57 | 16.96061 | 74.04977 | 36895 ft | 491 kts | 137° |
| 2026-04-29 08:57 | 16.91008 | 74.09726 | 36883 ft | 491 kts | 137° |
| 2026-04-29 08:58 | 16.86386 | 74.14924 | 36930 ft | 488 kts | 127° |
| 2026-04-29 08:58 | 16.82152 | 74.20497 | 36921 ft | 489 kts | 127° |
| 2026-04-29 08:59 | 16.77926 | 74.26075 | 36921 ft | 490 kts | 127° |
| 2026-04-29 08:59 | 16.73731 | 74.31611 | 36934 ft | 488 kts | 127° |
| 2026-04-29 09:00 | 16.69520 | 74.37164 | 36942 ft | 488 kts | 127° |
| 2026-04-29 09:00 | 16.65297 | 74.42728 | 36930 ft | 489 kts | 127° |
| 2026-04-29 09:01 | 16.61072 | 74.48290 | 36923 ft | 489 kts | 127° |
| 2026-04-29 09:01 | 16.56852 | 74.53843 | 36897 ft | 488 kts | 127° |
| 2026-04-29 09:02 | 16.52625 | 74.59399 | 36877 ft | 489 kts | 127° |
| 2026-04-29 09:02 | 16.50950 | 74.61600 | 36871 ft | 489 kts | 127° |
| 2026-04-29 09:11 | 16.48462 | 74.64867 | 36866 ft | 488 kts | 127° |
| 2026-04-29 09:12 | 16.44238 | 74.70408 | 36854 ft | 488 kts | 128° |
| 2026-04-29 09:12 | 16.40019 | 74.75939 | 36857 ft | 487 kts | 128° |
| 2026-04-29 09:13 | 16.35796 | 74.81472 | 36851 ft | 487 kts | 128° |
| 2026-04-29 09:13 | 16.31575 | 74.86997 | 36849 ft | 487 kts | 128° |
| 2026-04-29 09:14 | 16.27349 | 74.92525 | 36850 ft | 487 kts | 128° |
| 2026-04-29 09:14 | 16.23147 | 74.98017 | 36848 ft | 487 kts | 128° |
| 2026-04-29 09:15 | 16.18924 | 75.03533 | 36846 ft | 487 kts | 128° |
| 2026-04-29 09:15 | 16.14700 | 75.09044 | 36834 ft | 487 kts | 128° |
| 2026-04-29 09:16 | 16.10473 | 75.14558 | 36835 ft | 487 kts | 128° |
| 2026-04-29 09:16 | 16.06238 | 75.20076 | 36835 ft | 487 kts | 128° |
| 2026-04-29 09:17 | 16.02014 | 75.25576 | 36830 ft | 487 kts | 128° |
| 2026-04-29 09:17 | 15.97780 | 75.31084 | 36831 ft | 487 kts | 128° |
| 2026-04-29 09:18 | 15.93544 | 75.36592 | 36818 ft | 487 kts | 128° |
| 2026-04-29 09:18 | 15.89338 | 75.42056 | 36820 ft | 487 kts | 128° |
| 2026-04-29 09:19 | 15.85100 | 75.47558 | 36803 ft | 488 kts | 129° |
| 2026-04-29 09:19 | 15.80846 | 75.53075 | 36807 ft | 487 kts | 129° |
| 2026-04-29 09:20 | 15.76607 | 75.58570 | 36819 ft | 487 kts | 129° |
| 2026-04-29 09:20 | 15.72376 | 75.64050 | 36802 ft | 487 kts | 129° |
| 2026-04-29 09:21 | 15.68134 | 75.69541 | 36798 ft | 487 kts | 129° |
| 2026-04-29 09:21 | 15.63928 | 75.74981 | 36802 ft | 487 kts | 129° |
| 2026-04-29 09:22 | 15.59679 | 75.80472 | 36800 ft | 487 kts | 129° |
| 2026-04-29 09:22 | 15.55435 | 75.85954 | 36797 ft | 488 kts | 129° |
| 2026-04-29 09:23 | 15.51181 | 75.91443 | 36795 ft | 488 kts | 129° |
| 2026-04-29 09:23 | 15.46924 | 75.96933 | 36782 ft | 488 kts | 129° |
| 2026-04-29 09:24 | 15.42702 | 76.02374 | 36779 ft | 486 kts | 129° |
| 2026-04-29 09:24 | 15.40592 | 76.05091 | 36229 ft | 483 kts | 129° |
| 2026-04-29 09:24 | 15.38476 | 76.07813 | 35447 ft | 486 kts | 130° |
| 2026-04-29 09:24 | 15.36349 | 76.10551 | 34702 ft | 489 kts | 130° |
| 2026-04-29 09:25 | 15.34209 | 76.13305 | 33964 ft | 492 kts | 130° |
| 2026-04-29 09:25 | 15.32052 | 76.16079 | 33063 ft | 497 kts | 130° |
| 2026-04-29 09:25 | 15.29874 | 76.18879 | 32182 ft | 500 kts | 131° |
| 2026-04-29 09:25 | 15.27679 | 76.21700 | 31341 ft | 504 kts | 131° |
| 2026-04-29 09:26 | 15.25501 | 76.24499 | 30523 ft | 506 kts | 131° |
| 2026-04-29 09:26 | 15.23451 | 76.27130 | 29678 ft | 510 kts | 131° |
| 2026-04-29 09:26 | 15.21289 | 76.29910 | 28678 ft | 513 kts | 131° |
| 2026-04-29 09:26 | 15.19044 | 76.32791 | 27812 ft | 513 kts | 131° |
| 2026-04-29 09:27 | 15.16693 | 76.35551 | 26931 ft | 509 kts | 140° |
| 2026-04-29 09:27 | 15.13844 | 76.37681 | 26077 ft | 504 kts | 150° |
| 2026-04-29 09:27 | 15.10894 | 76.39646 | 25263 ft | 504 kts | 149° |
| 2026-04-29 09:27 | 15.07955 | 76.41595 | 25066 ft | 503 kts | 150° |
| 2026-04-29 09:28 | 15.04988 | 76.43546 | 24851 ft | 505 kts | 150° |
| 2026-04-29 09:28 | 15.02014 | 76.45496 | 24831 ft | 506 kts | 150° |
| 2026-04-29 09:28 | 14.99037 | 76.47446 | 24834 ft | 507 kts | 150° |
| 2026-04-29 09:28 | 14.96048 | 76.49402 | 24833 ft | 507 kts | 150° |
| 2026-04-29 09:29 | 14.93072 | 76.51351 | 24837 ft | 507 kts | 150° |
| 2026-04-29 09:29 | 14.87148 | 76.55226 | 24834 ft | 507 kts | 150° |
| 2026-04-29 09:29 | 14.84165 | 76.57177 | 24829 ft | 507 kts | 150° |
| 2026-04-29 09:30 | 14.81179 | 76.59128 | 24838 ft | 507 kts | 150° |
| 2026-04-29 09:30 | 14.78193 | 76.61079 | 24837 ft | 507 kts | 150° |
| 2026-04-29 09:30 | 14.75210 | 76.63028 | 24837 ft | 507 kts | 150° |
| 2026-04-29 09:30 | 14.72229 | 76.64975 | 24840 ft | 507 kts | 150° |
| 2026-04-29 09:31 | 14.69234 | 76.66930 | 24839 ft | 507 kts | 150° |
| 2026-04-29 09:31 | 14.66252 | 76.68876 | 24840 ft | 507 kts | 150° |
| 2026-04-29 09:31 | 14.63263 | 76.70826 | 24840 ft | 507 kts | 150° |
| 2026-04-29 09:31 | 14.60275 | 76.72774 | 24840 ft | 507 kts | 150° |
| 2026-04-29 09:32 | 14.57294 | 76.74718 | 24841 ft | 507 kts | 150° |
| 2026-04-29 09:32 | 14.54305 | 76.76666 | 24840 ft | 507 kts | 150° |
| 2026-04-29 09:32 | 14.51323 | 76.78608 | 24843 ft | 507 kts | 150° |
| 2026-04-29 09:32 | 14.48344 | 76.80549 | 24854 ft | 507 kts | 150° |
| 2026-04-29 09:33 | 14.45356 | 76.82494 | 24853 ft | 507 kts | 150° |
| 2026-04-29 09:33 | 14.42369 | 76.84438 | 24854 ft | 507 kts | 150° |
| 2026-04-29 09:33 | 14.39532 | 76.86284 | 24860 ft | 507 kts | 150° |
| 2026-04-29 09:33 | 14.36542 | 76.88229 | 24860 ft | 507 kts | 150° |
| 2026-04-29 09:34 | 14.33593 | 76.90147 | 24859 ft | 507 kts | 150° |
| 2026-04-29 09:34 | 14.30607 | 76.92088 | 24860 ft | 507 kts | 150° |
| 2026-04-29 09:34 | 14.27579 | 76.94056 | 24874 ft | 507 kts | 150° |
| 2026-04-29 09:34 | 14.24636 | 76.95968 | 24873 ft | 507 kts | 150° |
| 2026-04-29 09:35 | 14.21643 | 76.97914 | 24872 ft | 507 kts | 150° |
| 2026-04-29 09:35 | 14.18670 | 76.99852 | 24868 ft | 506 kts | 150° |
| 2026-04-29 09:35 | 14.15694 | 77.01790 | 24869 ft | 506 kts | 150° |
| 2026-04-29 09:35 | 14.12730 | 77.03721 | 24685 ft | 497 kts | 150° |
| 2026-04-29 09:36 | 14.09806 | 77.05625 | 23904 ft | 496 kts | 149° |
| 2026-04-29 09:36 | 14.06909 | 77.07509 | 23344 ft | 489 kts | 149° |
| 2026-04-29 09:36 | 14.04060 | 77.09364 | 22739 ft | 482 kts | 149° |
| 2026-04-29 09:36 | 14.01244 | 77.11195 | 22161 ft | 475 kts | 149° |
| 2026-04-29 09:37 | 13.98462 | 77.13004 | 21610 ft | 468 kts | 149° |
| 2026-04-29 09:37 | 13.95729 | 77.14780 | 21096 ft | 461 kts | 149° |
| 2026-04-29 09:37 | 13.93036 | 77.16531 | 20618 ft | 454 kts | 149° |
| 2026-04-29 09:37 | 13.90386 | 77.18252 | 20205 ft | 447 kts | 149° |
| 2026-04-29 09:38 | 13.88657 | 77.19376 | 19972 ft | 441 kts | 149° |
| 2026-04-29 09:38 | 13.86086 | 77.21046 | 19614 ft | 433 kts | 148° |
| 2026-04-29 09:38 | 13.83552 | 77.22691 | 19250 ft | 427 kts | 148° |
| 2026-04-29 09:38 | 13.80258 | 77.24829 | 18787 ft | 418 kts | 148° |
| 2026-04-29 09:39 | 13.78598 | 77.25906 | 18575 ft | 414 kts | 148° |
| 2026-04-29 09:39 | 13.75390 | 77.27987 | 17972 ft | 410 kts | 148° |
| 2026-04-29 09:39 | 13.73792 | 77.29024 | 17685 ft | 408 kts | 148° |
| 2026-04-29 09:39 | 13.71401 | 77.30574 | 17238 ft | 404 kts | 147° |
| 2026-04-29 09:40 | 13.69030 | 77.32112 | 16762 ft | 402 kts | 147° |
| 2026-04-29 09:40 | 13.66669 | 77.33642 | 16363 ft | 397 kts | 147° |
| 2026-04-29 09:40 | 13.64347 | 77.35146 | 16045 ft | 391 kts | 147° |
| 2026-04-29 09:40 | 13.62054 | 77.36632 | 15597 ft | 388 kts | 146° |
| 2026-04-29 09:41 | 13.59780 | 77.38104 | 15251 ft | 384 kts | 146° |
| 2026-04-29 09:41 | 13.57597 | 77.39649 | 14879 ft | 379 kts | 142° |
| 2026-04-29 09:41 | 13.55494 | 77.41266 | 14476 ft | 375 kts | 142° |
| 2026-04-29 09:41 | 13.53405 | 77.42855 | 14120 ft | 371 kts | 142° |
| 2026-04-29 09:42 | 13.51354 | 77.44407 | 13905 ft | 363 kts | 142° |
| 2026-04-29 09:42 | 13.49343 | 77.45922 | 13739 ft | 353 kts | 142° |
| 2026-04-29 09:42 | 13.47387 | 77.47396 | 13567 ft | 344 kts | 142° |
| 2026-04-29 09:42 | 13.45504 | 77.48814 | 13418 ft | 335 kts | 142° |
| 2026-04-29 09:43 | 13.43677 | 77.50189 | 13210 ft | 323 kts | 142° |
| 2026-04-29 09:43 | 13.41893 | 77.51532 | 12827 ft | 313 kts | 142° |
| 2026-04-29 09:43 | 13.40164 | 77.52833 | 12460 ft | 303 kts | 142° |
| 2026-04-29 09:43 | 13.38491 | 77.54091 | 12125 ft | 293 kts | 142° |
| 2026-04-29 09:44 | 13.36870 | 77.55310 | 11807 ft | 283 kts | 142° |
| 2026-04-29 09:44 | 13.35305 | 77.56487 | 11473 ft | 275 kts | 142° |
| 2026-04-29 09:44 | 13.33784 | 77.57631 | 11155 ft | 267 kts | 142° |
| 2026-04-29 09:44 | 13.32326 | 77.58766 | 10843 ft | 258 kts | 135° |
| 2026-04-29 09:45 | 13.31381 | 77.60264 | 10486 ft | 248 kts | 104° |
| 2026-04-29 09:45 | 13.31199 | 77.61983 | 10158 ft | 241 kts | 91° |
| 2026-04-29 09:45 | 13.31152 | 77.63713 | 9676 ft | 243 kts | 91° |
| 2026-04-29 09:45 | 13.31115 | 77.65445 | 9224 ft | 241 kts | 91° |
| 2026-04-29 09:46 | 13.31087 | 77.67097 | 8991 ft | 234 kts | 91° |
| 2026-04-29 09:46 | 13.31064 | 77.68735 | 8874 ft | 224 kts | 90° |
| 2026-04-29 09:46 | 13.31047 | 77.70282 | 8751 ft | 211 kts | 90° |
| 2026-04-29 09:46 | 13.31032 | 77.71727 | 8555 ft | 201 kts | 90° |
| 2026-04-29 09:47 | 13.31019 | 77.73131 | 8355 ft | 193 kts | 90° |
| 2026-04-29 09:47 | 13.31007 | 77.74506 | 8029 ft | 192 kts | 90° |
| 2026-04-29 09:47 | 13.30995 | 77.75865 | 7721 ft | 190 kts | 90° |
| 2026-04-29 09:47 | 13.30984 | 77.77221 | 7412 ft | 189 kts | 90° |
| 2026-04-29 09:48 | 13.30973 | 77.78577 | 7096 ft | 192 kts | 90° |
| 2026-04-29 09:48 | 13.30961 | 77.79988 | 6924 ft | 203 kts | 90° |
| 2026-04-29 09:48 | 13.30948 | 77.81490 | 6937 ft | 218 kts | 90° |
| 2026-04-29 09:48 | 13.30925 | 77.83096 | 6958 ft | 229 kts | 91° |
| 2026-04-29 09:49 | 13.30890 | 77.84736 | 6938 ft | 235 kts | 90° |
| 2026-04-29 09:49 | 13.30853 | 77.86415 | 6924 ft | 235 kts | 91° |
| 2026-04-29 09:49 | 13.30815 | 77.88094 | 6924 ft | 236 kts | 91° |
| 2026-04-29 09:49 | 13.30776 | 77.89779 | 6935 ft | 236 kts | 91° |
| 2026-04-29 09:50 | 13.30736 | 77.91455 | 6920 ft | 234 kts | 91° |
| 2026-04-29 09:50 | 13.30662 | 77.93113 | 6582 ft | 234 kts | 100° |
| 2026-04-29 09:50 | 13.29852 | 77.94528 | 6175 ft | 234 kts | 142° |
| 2026-04-29 09:50 | 13.28374 | 77.95169 | 5969 ft | 228 kts | 161° |
| 2026-04-29 09:51 | 13.26858 | 77.95733 | 6009 ft | 235 kts | 158° |
| 2026-04-29 09:51 | 13.25337 | 77.96361 | 5964 ft | 236 kts | 156° |
| 2026-04-29 09:51 | 13.23812 | 77.96764 | 5928 ft | 219 kts | 180° |
| 2026-04-29 09:51 | 13.22418 | 77.96369 | 5892 ft | 203 kts | 212° |
| 2026-04-29 09:52 | 13.21514 | 77.95331 | 5818 ft | 194 kts | 246° |
| 2026-04-29 09:52 | 13.21051 | 77.94033 | 5962 ft | 196 kts | 252° |
| 2026-04-29 09:52 | 13.20686 | 77.92680 | 6056 ft | 198 kts | 259° |
| 2026-04-29 09:52 | 13.20558 | 77.91307 | 6114 ft | 193 kts | 266° |
| 2026-04-29 09:53 | 13.20533 | 77.89942 | 6065 ft | 189 kts | 269° |
| 2026-04-29 09:53 | 13.20543 | 77.88659 | 5856 ft | 178 kts | 269° |
| 2026-04-29 09:53 | 13.20552 | 77.87413 | 5655 ft | 173 kts | 270° |
| 2026-04-29 09:53 | 13.20563 | 77.86185 | 5443 ft | 171 kts | 271° |
| 2026-04-29 09:54 | 13.20576 | 77.84965 | 5246 ft | 170 kts | 271° |
| 2026-04-29 09:54 | 13.20586 | 77.83748 | 5035 ft | 170 kts | 271° |
| 2026-04-29 09:54 | 13.20597 | 77.82535 | 4835 ft | 169 kts | 271° |
| 2026-04-29 09:54 | 13.20606 | 77.81336 | 4645 ft | 168 kts | 271° |
| 2026-04-29 09:55 | 13.20621 | 77.80138 | 4474 ft | 168 kts | 272° |
| 2026-04-29 09:55 | 13.20628 | 77.78942 | 4217 ft | 167 kts | 270° |
| 2026-04-29 09:55 | 13.20620 | 77.77752 | 3992 ft | 167 kts | 270° |
| 2026-04-29 09:55 | 13.20637 | 77.76572 | 3738 ft | 164 kts | 272° |
| 2026-04-29 09:56 | 13.20681 | 77.75415 | 3582 ft | 160 kts | 267° |
| 2026-04-29 09:56 | 13.20637 | 77.74273 | 3361 ft | 158 kts | 270° |
| 2026-04-29 09:56 | 13.20675 | 77.73159 | 3143 ft | 157 kts | 273° |
| 2026-04-29 09:56 | 13.20706 | 77.72061 | 3039 ft | 150 kts | 265° |
| 2026-04-29 09:57 | 13.20694 | 77.71053 | 3014 ft | 124 kts | 272° |
| 2026-04-29 09:57 | 13.20705 | 77.70377 | 3013 ft | 72 kts | 270° |
| 2026-04-29 09:57 | 13.20649 | 77.70026 | 3014 ft | 44 kts | 239° |
| 2026-04-29 09:57 | 13.20553 | 77.69900 | 3014 ft | 6 kts | 167° |